sensor_id;sensor_type;location;lat;lon;timestamp;P1;durP1;ratioP1;P2;durP2;ratioP2
22017;SDS011;11173;51.050;7.108;2023-04-06T00:02:20;8.95;;;6.45;;
22017;SDS011;11173;51.050;7.108;2023-04-06T00:12:20;6.60;;;5.80;;
22017;SDS011;11173;51.050;7.108;2023-04-06T00:22:21;7.15;;;6.10;;
22017;SDS011;11173;51.050;7.108;2023-04-06T00:32:21;6.60;;;5.97;;
22017;SDS011;11173;51.050;7.108;2023-04-06T00:42:21;7.30;;;6.47;;
22017;SDS011;11173;51.050;7.108;2023-04-06T00:52:25;6.68;;;5.03;;
22017;SDS011;11173;51.050;7.108;2023-04-06T01:02:26;5.85;;;5.25;;
22017;SDS011;11173;51.050;7.108;2023-04-06T01:12:26;6.43;;;5.57;;
22017;SDS011;11173;51.050;7.108;2023-04-06T01:22:26;7.72;;;5.63;;
22017;SDS011;11173;51.050;7.108;2023-04-06T01:32:27;5.65;;;5.05;;
22017;SDS011;11173;51.050;7.108;2023-04-06T01:42:27;8.65;;;5.88;;
22017;SDS011;11173;51.050;7.108;2023-04-06T01:52:28;6.28;;;5.68;;
22017;SDS011;11173;51.050;7.108;2023-04-06T02:02:29;5.85;;;5.25;;
22017;SDS011;11173;51.050;7.108;2023-04-06T02:12:29;6.93;;;5.03;;
22017;SDS011;11173;51.050;7.108;2023-04-06T02:22:30;6.68;;;5.22;;
22017;SDS011;11173;51.050;7.108;2023-04-06T02:32:30;5.22;;;4.72;;
22017;SDS011;11173;51.050;7.108;2023-04-06T02:42:30;5.43;;;4.85;;
22017;SDS011;11173;51.050;7.108;2023-04-06T02:52:31;5.13;;;4.60;;
22017;SDS011;11173;51.050;7.108;2023-04-06T03:02:32;5.65;;;5.15;;
22017;SDS011;11173;51.050;7.108;2023-04-06T03:12:32;5.68;;;5.03;;
22017;SDS011;11173;51.050;7.108;2023-04-06T03:22:32;4.93;;;4.43;;
22017;SDS011;11173;51.050;7.108;2023-04-06T03:32:33;5.25;;;4.68;;
22017;SDS011;11173;51.050;7.108;2023-04-06T03:42:33;8.80;;;5.45;;
22017;SDS011;11173;51.050;7.108;2023-04-06T03:52:34;6.75;;;5.55;;
22017;SDS011;11173;51.050;7.108;2023-04-06T04:02:35;5.95;;;5.45;;
22017;SDS011;11173;51.050;7.108;2023-04-06T04:12:36;6.47;;;5.70;;
22017;SDS011;11173;51.050;7.108;2023-04-06T04:22:36;7.43;;;5.57;;
22017;SDS011;11173;51.050;7.108;2023-04-06T04:32:36;6.53;;;5.70;;
22017;SDS011;11173;51.050;7.108;2023-04-06T04:42:37;6.25;;;5.57;;
22017;SDS011;11173;51.050;7.108;2023-04-06T04:52:37;5.35;;;4.88;;
22017;SDS011;11173;51.050;7.108;2023-04-06T05:02:38;5.28;;;4.88;;
22017;SDS011;11173;51.050;7.108;2023-04-06T05:12:39;4.68;;;4.28;;
22017;SDS011;11173;51.050;7.108;2023-04-06T05:22:40;4.82;;;4.43;;
22017;SDS011;11173;51.050;7.108;2023-04-06T05:32:40;6.13;;;4.72;;
22017;SDS011;11173;51.050;7.108;2023-04-06T05:42:41;4.55;;;4.13;;
22017;SDS011;11173;51.050;7.108;2023-04-06T05:52:42;4.40;;;4.00;;
22017;SDS011;11173;51.050;7.108;2023-04-06T06:02:45;5.07;;;4.22;;
22017;SDS011;11173;51.050;7.108;2023-04-06T06:12:45;3.88;;;3.50;;
22017;SDS011;11173;51.050;7.108;2023-04-06T06:22:46;4.60;;;4.20;;
22017;SDS011;11173;51.050;7.108;2023-04-06T06:32:46;5.75;;;4.10;;
22017;SDS011;11173;51.050;7.108;2023-04-06T06:42:46;4.93;;;4.07;;
22017;SDS011;11173;51.050;7.108;2023-04-06T06:52:47;5.00;;;3.78;;
22017;SDS011;11173;51.050;7.108;2023-04-06T07:02:47;4.50;;;4.10;;
22017;SDS011;11173;51.050;7.108;2023-04-06T07:12:48;5.13;;;3.78;;
22017;SDS011;11173;51.050;7.108;2023-04-06T07:22:48;6.05;;;3.90;;
22017;SDS011;11173;51.050;7.108;2023-04-06T07:32:49;3.97;;;3.58;;
22017;SDS011;11173;51.050;7.108;2023-04-06T07:42:49;4.45;;;3.85;;
22017;SDS011;11173;51.050;7.108;2023-04-06T07:52:50;2.30;;;2.10;;
22017;SDS011;11173;51.050;7.108;2023-04-06T08:02:50;2.00;;;1.80;;
22017;SDS011;11173;51.050;7.108;2023-04-06T08:12:51;2.50;;;2.30;;
22017;SDS011;11173;51.050;7.108;2023-04-06T08:22:52;3.47;;;3.17;;
22017;SDS011;11173;51.050;7.108;2023-04-06T08:32:52;2.80;;;2.60;;
22017;SDS011;11173;51.050;7.108;2023-04-06T08:42:54;1.80;;;1.70;;
22017;SDS011;11173;51.050;7.108;2023-04-06T08:52:56;1.60;;;1.50;;
22017;SDS011;11173;51.050;7.108;2023-04-06T09:02:56;2.70;;;2.50;;
22017;SDS011;11173;51.050;7.108;2023-04-06T09:13:04;2.70;;;2.50;;
22017;SDS011;11173;51.050;7.108;2023-04-06T09:23:05;3.10;;;2.85;;
22017;SDS011;11173;51.050;7.108;2023-04-06T09:33:06;2.15;;;1.95;;
22017;SDS011;11173;51.050;7.108;2023-04-06T09:43:06;1.73;;;1.60;;
22017;SDS011;11173;51.050;7.108;2023-04-06T09:53:07;2.30;;;2.10;;
22017;SDS011;11173;51.050;7.108;2023-04-06T10:03:14;2.95;;;2.72;;
22017;SDS011;11173;51.050;7.108;2023-04-06T10:13:30;4.28;;;3.85;;
22017;SDS011;11173;51.050;7.108;2023-04-06T10:23:39;3.03;;;2.72;;
22017;SDS011;11173;51.050;7.108;2023-04-06T10:33:52;2.85;;;2.65;;
22017;SDS011;11173;51.050;7.108;2023-04-06T10:44:00;2.20;;;2.00;;
22017;SDS011;11173;51.050;7.108;2023-04-06T10:54:01;3.38;;;3.08;;
22017;SDS011;11173;51.050;7.108;2023-04-06T11:04:05;2.92;;;2.63;;
22017;SDS011;11173;51.050;7.108;2023-04-06T11:14:09;2.70;;;2.50;;
22017;SDS011;11173;51.050;7.108;2023-04-06T11:34:15;4.90;;;4.40;;
22017;SDS011;11173;51.050;7.108;2023-04-06T11:54:50;2.63;;;2.42;;
22017;SDS011;11173;51.050;7.108;2023-04-06T12:04:52;3.08;;;2.80;;
22017;SDS011;11173;51.050;7.108;2023-04-06T12:14:52;3.47;;;3.17;;
22017;SDS011;11173;51.050;7.108;2023-04-06T12:24:52;3.53;;;3.22;;
22017;SDS011;11173;51.050;7.108;2023-04-06T12:34:53;3.58;;;2.70;;
22017;SDS011;11173;51.050;7.108;2023-04-06T12:44:53;5.45;;;4.72;;
22017;SDS011;11173;51.050;7.108;2023-04-06T12:54:54;4.10;;;3.70;;
22017;SDS011;11173;51.050;7.108;2023-04-06T13:04:54;2.17;;;1.97;;
22017;SDS011;11173;51.050;7.108;2023-04-06T13:14:57;2.63;;;2.42;;
22017;SDS011;11173;51.050;7.108;2023-04-06T13:24:58;3.17;;;2.97;;
22017;SDS011;11173;51.050;7.108;2023-04-06T13:34:58;3.20;;;2.90;;
22017;SDS011;11173;51.050;7.108;2023-04-06T13:45:00;2.80;;;2.60;;
22017;SDS011;11173;51.050;7.108;2023-04-06T13:55:01;3.50;;;3.20;;
22017;SDS011;11173;51.050;7.108;2023-04-06T14:05:02;2.03;;;1.92;;
22017;SDS011;11173;51.050;7.108;2023-04-06T14:15:03;3.80;;;2.00;;
22017;SDS011;11173;51.050;7.108;2023-04-06T14:25:04;1.40;;;1.30;;
22017;SDS011;11173;51.050;7.108;2023-04-06T14:35:04;2.73;;;2.53;;
22017;SDS011;11173;51.050;7.108;2023-04-06T14:45:05;2.15;;;2.03;;
22017;SDS011;11173;51.050;7.108;2023-04-06T14:55:06;3.40;;;2.95;;
22017;SDS011;11173;51.050;7.108;2023-04-06T15:05:07;3.07;;;2.70;;
22017;SDS011;11173;51.050;7.108;2023-04-06T15:15:07;1.85;;;1.75;;
22017;SDS011;11173;51.050;7.108;2023-04-06T15:25:08;1.80;;;1.70;;
22017;SDS011;11173;51.050;7.108;2023-04-06T15:35:13;1.67;;;1.58;;
22017;SDS011;11173;51.050;7.108;2023-04-06T15:45:13;0.90;;;0.90;;
22017;SDS011;11173;51.050;7.108;2023-04-06T15:55:14;1.17;;;1.10;;
22017;SDS011;11173;51.050;7.108;2023-04-06T16:05:14;1.00;;;1.00;;
22017;SDS011;11173;51.050;7.108;2023-04-06T16:15:15;0.80;;;0.80;;
22017;SDS011;11173;51.050;7.108;2023-04-06T16:25:15;1.40;;;1.30;;
22017;SDS011;11173;51.050;7.108;2023-04-06T16:35:16;0.70;;;0.70;;
22017;SDS011;11173;51.050;7.108;2023-04-06T16:45:16;1.27;;;1.17;;
22017;SDS011;11173;51.050;7.108;2023-04-06T16:55:17;0.88;;;0.88;;
22017;SDS011;11173;51.050;7.108;2023-04-06T17:05:17;0.80;;;0.80;;
22017;SDS011;11173;51.050;7.108;2023-04-06T17:15:25;1.00;;;1.00;;
22017;SDS011;11173;51.050;7.108;2023-04-06T17:25:27;0.95;;;0.95;;
22017;SDS011;11173;51.050;7.108;2023-04-06T17:35:27;0.80;;;0.80;;
22017;SDS011;11173;51.050;7.108;2023-04-06T17:45:29;0.60;;;0.60;;
22017;SDS011;11173;51.050;7.108;2023-04-06T17:55:30;1.38;;;1.25;;
22017;SDS011;11173;51.050;7.108;2023-04-06T18:05:30;1.58;;;1.48;;
22017;SDS011;11173;51.050;7.108;2023-04-06T18:15:31;1.50;;;1.40;;
22017;SDS011;11173;51.050;7.108;2023-04-06T18:25:39;1.35;;;1.25;;
22017;SDS011;11173;51.050;7.108;2023-04-06T18:35:40;1.92;;;1.77;;
22017;SDS011;11173;51.050;7.108;2023-04-06T18:45:41;2.20;;;2.00;;
22017;SDS011;11173;51.050;7.108;2023-04-06T18:55:42;2.40;;;2.20;;
22017;SDS011;11173;51.050;7.108;2023-04-06T19:05:44;2.10;;;2.00;;
22017;SDS011;11173;51.050;7.108;2023-04-06T19:15:44;1.60;;;1.50;;
22017;SDS011;11173;51.050;7.108;2023-04-06T19:25:45;1.90;;;1.80;;
22017;SDS011;11173;51.050;7.108;2023-04-06T19:35:45;1.80;;;1.70;;
22017;SDS011;11173;51.050;7.108;2023-04-06T19:45:46;1.60;;;1.50;;
22017;SDS011;11173;51.050;7.108;2023-04-06T19:55:46;1.60;;;1.50;;
22017;SDS011;11173;51.050;7.108;2023-04-06T20:05:47;1.50;;;1.40;;
22017;SDS011;11173;51.050;7.108;2023-04-06T20:15:47;2.47;;;1.80;;
22017;SDS011;11173;51.050;7.108;2023-04-06T20:25:48;1.80;;;1.70;;
22017;SDS011;11173;51.050;7.108;2023-04-06T20:35:58;2.03;;;1.92;;
22017;SDS011;11173;51.050;7.108;2023-04-06T20:45:59;1.40;;;1.30;;
22017;SDS011;11173;51.050;7.108;2023-04-06T20:56:01;1.30;;;1.27;;
22017;SDS011;11173;51.050;7.108;2023-04-06T21:06:02;2.03;;;1.92;;
22017;SDS011;11173;51.050;7.108;2023-04-06T21:16:02;1.80;;;1.70;;
22017;SDS011;11173;51.050;7.108;2023-04-06T21:26:03;1.48;;;1.38;;
22017;SDS011;11173;51.050;7.108;2023-04-06T21:36:04;1.30;;;1.20;;
22017;SDS011;11173;51.050;7.108;2023-04-06T21:46:05;0.80;;;0.80;;
22017;SDS011;11173;51.050;7.108;2023-04-06T21:56:06;1.17;;;1.08;;
22017;SDS011;11173;51.050;7.108;2023-04-06T22:06:06;1.10;;;1.00;;
22017;SDS011;11173;51.050;7.108;2023-04-06T22:16:07;1.00;;;1.00;;
22017;SDS011;11173;51.050;7.108;2023-04-06T22:26:08;1.10;;;1.00;;
22017;SDS011;11173;51.050;7.108;2023-04-06T22:36:09;1.60;;;1.50;;
22017;SDS011;11173;51.050;7.108;2023-04-06T22:46:09;1.35;;;1.30;;
22017;SDS011;11173;51.050;7.108;2023-04-06T22:56:09;1.38;;;1.30;;
22017;SDS011;11173;51.050;7.108;2023-04-06T23:06:10;1.50;;;1.40;;
22017;SDS011;11173;51.050;7.108;2023-04-06T23:16:10;2.10;;;2.00;;
22017;SDS011;11173;51.050;7.108;2023-04-06T23:26:11;1.50;;;1.40;;
22017;SDS011;11173;51.050;7.108;2023-04-06T23:36:11;1.42;;;1.33;;
22017;SDS011;11173;51.050;7.108;2023-04-06T23:46:14;1.55;;;1.45;;
22017;SDS011;11173;51.050;7.108;2023-04-06T23:56:15;1.08;;;1.08;;
